Accueil
METAR-TAF:

METAR-TAF

Aéroports :

Aéroport de Nîmes–Alès–Camargue–Cévennes, Garons

Nîmes, France

latitude: 43-45N, longitude: 004-25E, altitude: 94 m

Observation

Le bulletin a été fait il y a 26 minutes, à 02:00 UTC
Vent 7 kt de nord/nord-ouest
Température 22°C
Humidité 53%
Pression 1019 hPa
Visibilité 10 km ou plus
pas de nuages en-dessous de 1500 mètres et pas de cumulonimbus.

METAR: LFTW 190200Z AUTO 34007KT CAVOK 22/12 Q1019

Heure: 04:26 (02:26 UTC)

Prévision

Le bulletin a été fait il y a 12 heures et 26 minutes, à 14:00 UTC
Prévision valable du 18 à 15 UTC au 19 à 15 UTC
Vent 10 kt de nord/nord-est
Visibilité 10 km ou plus
pas de nuages en-dessous de 1500 mètres et pas de cumulonimbus.
Temporairement
du 18 à 15 UTC au 19 à 15 UTC
Vent 10 kt de nord avec des rafales jusqu'à 20 kt

TAF: LFTW 181400Z 1815/1915 02010KT CAVOK TEMPO 1815/1915 01010G20KT

Observations et prévisions météorologiques de plus de 4000 aéroports (messages METAR et TAF).

Les stations disponibles sont représentées par des disques jaunes et rouges sur la carte.

Passer la souris dessus pour voir le nom de la station.

Cliquer dessus pour voir les observations et prévisions météorologiques.

Pour changer de carte: cliquez sur les boutons verts avec une croix noire pour zoomer, sur le bouton vert avec un tiret pour effectuer un zoom arrière, ou sur les flèches vertes pour les cartes adjacentes.


METAR-TAF: